Time;durP1;ratioP1;P1;durP2;ratioP2;P2;SDS_P1;SDS_P2;PMS_P1;PMS_P2;Temp;Humidity;BMP_temperature;BMP_pressure;BME280_temperature;BME280_humidity;BME280_pressure;Samples;Min_cycle;Max_cycle;Signal;HPM_P1;HPM_P2
2023/04/23 00:00:04;;;;;;;55.72;26.40;;;6.70;99.90;;;;;;5012873;28;20536;-61
2023/04/23 00:02:32;;;;;;;64.78;28.38;;;6.70;99.90;;;;;;5013303;28;20060;-62
2023/04/23 00:05:05;;;;;;;56.05;27.02;;;6.50;99.90;;;;;;5013015;28;20462;-61
2023/04/23 00:07:32;;;;;;;49.90;24.98;;;6.20;99.90;;;;;;5013079;28;20049;-61
2023/04/23 00:10:00;;;;;;;63.20;27.65;;;6.70;99.90;;;;;;5013243;28;20085;-62
2023/04/23 00:12:29;;;;;;;62.58;27.92;;;7.00;99.90;;;;;;5012762;28;20129;-62
2023/04/23 00:14:54;;;;;;;59.10;29.20;;;6.30;99.90;;;;;;5012804;28;20054;-63
2023/04/23 00:17:20;;;;;;;53.58;28.10;;;7.00;99.90;;;;;;5013055;28;20085;-61
2023/04/23 00:19:46;;;;;;;51.58;28.00;;;7.00;99.90;;;;;;5012977;28;20132;-62
2023/04/23 00:22:12;;;;;;;59.80;29.27;;;7.70;99.90;;;;;;5012982;28;20046;-62
2023/04/23 00:24:38;;;;;;;;;;;6.80;99.90;;;;;;5013401;28;20080;-63
2023/04/23 00:27:05;;;;;;;59.58;29.90;;;6.60;99.90;;;;;;5012817;28;19922;-62
2023/04/23 00:29:30;;;;;;;;;;;6.70;99.90;;;;;;5012015;28;20375;-62
2023/04/23 00:31:56;;;;;;;57.83;27.67;;;7.40;99.90;;;;;;5012705;28;19974;-62
2023/04/23 00:34:22;;;;;;;53.38;28.27;;;7.20;99.90;;;;;;5012506;28;20065;-61
2023/04/23 00:36:47;;;;;;;60.55;30.85;;;6.70;99.90;;;;;;5012800;28;20160;-62
2023/04/23 00:39:13;;;;;;;62.58;30.40;;;7.00;99.90;;;;;;5012678;28;20046;-61
2023/04/23 00:41:40;;;;;;;66.10;29.98;;;6.90;99.90;;;;;;5012145;28;20050;-62
2023/04/23 00:44:07;;;;;;;60.95;31.15;;;7.30;99.90;;;;;;5012679;28;20061;-61
2023/04/23 00:46:34;;;;;;;65.78;30.98;;;6.70;99.90;;;;;;5012568;28;20053;-61
2023/04/23 00:49:01;;;;;;;67.13;32.47;;;7.50;99.90;;;;;;5012875;28;20050;-61
2023/04/23 00:51:27;;;;;;;81.35;32.30;;;6.60;99.90;;;;;;5012461;28;20046;-62
2023/04/23 00:53:54;;;;;;;63.35;32.15;;;6.40;99.90;;;;;;5012500;28;20081;-61
2023/04/23 00:56:21;;;;;;;74.97;32.50;;;7.10;99.90;;;;;;5011910;28;20521;-61
2023/04/23 00:58:47;;;;;;;56.72;30.00;;;8.00;99.90;;;;;;5011380;28;20453;-64
2023/04/23 01:01:13;;;;;;;64.35;29.60;;;7.20;99.90;;;;;;5012356;28;20042;-62
2023/04/23 01:03:41;;;;;;;;;;;7.00;99.90;;;;;;5012788;28;20108;-62
2023/04/23 01:06:07;;;;;;;58.15;29.92;;;7.20;99.90;;;;;;5012313;28;20576;-61
2023/04/23 01:08:33;;;;;;;62.45;31.38;;;6.50;99.90;;;;;;5011217;28;20052;-61
2023/04/23 01:11:00;;;;;;;69.38;32.25;;;6.10;99.90;;;;;;5011916;28;20137;-64
2023/04/23 01:13:28;;;;;;;102.30;32.50;;;6.40;99.90;;;;;;5012203;28;20402;-61
2023/04/23 01:15:54;;;;;;;122.15;32.63;;;6.90;99.90;;;;;;5012176;28;20058;-62
2023/04/23 01:18:21;;;;;;;168.52;34.15;;;6.00;99.90;;;;;;5012101;28;20087;-61
2023/04/23 01:20:47;;;;;;;184.85;33.88;;;6.80;99.90;;;;;;5012181;28;20084;-61
2023/04/23 01:23:13;;;;;;;252.00;37.95;;;6.80;99.90;;;;;;5012148;28;20050;-61
2023/04/23 01:25:38;;;;;;;145.10;35.53;;;6.90;99.90;;;;;;5011812;28;20045;-62
2023/04/23 01:28:08;;;;;;;187.32;34.80;;;6.20;99.90;;;;;;5011779;28;20085;-63
2023/04/23 01:30:34;;;;;;;180.48;36.60;;;6.50;99.90;;;;;;5012005;28;20050;-61
2023/04/23 01:33:01;;;;;;;147.60;37.40;;;6.90;99.90;;;;;;5011981;28;20482;-61
2023/04/23 01:35:28;;;;;;;188.60;37.30;;;8.10;99.90;;;;;;5011467;28;20133;-61
2023/04/23 01:37:56;;;;;;;212.15;38.65;;;6.80;99.90;;;;;;5012123;28;20089;-64
2023/04/23 01:40:21;;;;;;;224.63;39.20;;;7.20;99.90;;;;;;5011911;28;20046;-61
2023/04/23 01:42:48;;;;;;;186.23;37.97;;;7.30;99.90;;;;;;5010516;28;20057;-61
2023/04/23 01:45:14;;;;;;;191.80;39.55;;;7.50;99.90;;;;;;5011916;28;20042;-61
2023/04/23 01:47:40;;;;;;;179.43;38.85;;;7.20;99.90;;;;;;5011940;28;20180;-64
2023/04/23 01:50:07;;;;;;;;;;;6.30;99.90;;;;;;5012394;28;20049;-61
2023/04/23 01:52:32;;;;;;;176.25;40.67;;;6.30;99.90;;;;;;5011754;28;19921;-62
2023/04/23 01:54:58;;;;;;;161.15;40.95;;;7.10;99.90;;;;;;5011514;28;20046;-61
2023/04/23 01:57:25;;;;;;;191.60;42.83;;;7.70;99.90;;;;;;5011753;28;20053;-61
2023/04/23 01:59:56;;;;;;;428.05;56.92;;;7.60;99.90;;;;;;5012055;28;20060;-61
2023/04/23 02:02:22;;;;;;;162.77;42.58;;;6.60;99.90;;;;;;5011697;28;20042;-61
2023/04/23 02:04:51;;;;;;;195.45;45.85;;;7.50;99.90;;;;;;5043336;28;20137;-61
2023/04/23 02:07:17;;;;;;;292.00;51.00;;;7.70;99.90;;;;;;5011701;28;20128;-61
2023/04/23 02:09:43;;;;;;;220.27;46.72;;;6.60;99.90;;;;;;5011374;28;20128;-61
2023/04/23 02:12:08;;;;;;;308.95;51.08;;;6.30;99.90;;;;;;5011488;28;20513;-61
2023/04/23 02:14:34;;;;;;;375.02;54.40;;;8.10;99.90;;;;;;5011641;28;20133;-61
2023/04/23 02:17:00;;;;;;;241.73;50.22;;;6.90;99.90;;;;;;5011535;28;20053;-62
2023/04/23 02:19:26;;;;;;;324.40;54.13;;;7.60;99.90;;;;;;5011548;28;20049;-61
2023/04/23 02:21:52;;;;;;;172.48;47.85;;;7.60;99.90;;;;;;5011522;28;20104;-62
2023/04/23 02:24:18;;;;;;;235.90;49.00;;;6.70;99.90;;;;;;5011239;28;20046;-62
2023/04/23 02:26:43;;;;;;;351.33;51.60;;;6.40;99.90;;;;;;5011462;28;20120;-61
2023/04/23 02:29:09;;;;;;;242.18;46.83;;;6.40;99.90;;;;;;5012734;28;20053;-61
2023/04/23 02:31:35;;;;;;;213.88;46.53;;;7.70;99.90;;;;;;5014983;28;20052;-62
2023/04/23 02:34:00;;;;;;;186.27;47.28;;;6.80;99.90;;;;;;5014986;28;20560;-62
2023/04/23 02:36:27;;;;;;;408.10;54.72;;;7.60;99.90;;;;;;5014944;28;20045;-61
2023/04/23 02:38:53;;;;;;;321.55;52.22;;;7.70;99.90;;;;;;5013331;28;20402;-62
2023/04/23 02:41:18;;;;;;;264.35;49.55;;;7.70;99.90;;;;;;5046823;28;20050;-62
2023/04/23 02:43:44;;;;;;;226.40;48.75;;;6.80;99.90;;;;;;5013569;28;20100;-62
2023/04/23 02:46:10;;;;;;;234.02;51.08;;;6.60;99.90;;;;;;5014746;28;20053;-62
2023/04/23 02:48:38;;;;;;;368.55;56.35;;;6.40;99.90;;;;;;5014754;28;20470;-62
2023/04/23 02:51:05;;;;;;;252.35;51.80;;;7.80;99.90;;;;;;5014631;28;20077;-62
2023/04/23 02:53:31;;;;;;;498.25;61.85;;;6.50;99.90;;;;;;5014257;28;20053;-62
2023/04/23 02:55:56;;;;;;;385.70;59.67;;;7.70;99.90;;;;;;5014641;28;20046;-62
2023/04/23 02:58:22;;;;;;;348.73;58.03;;;6.60;99.90;;;;;;5014551;28;20053;-61
2023/04/23 03:00:48;;;;;;;371.75;57.65;;;6.60;99.90;;;;;;5014565;28;20494;-61
2023/04/23 03:03:13;;;;;;;582.83;68.70;;;7.60;99.90;;;;;;5014329;28;20092;-62
2023/04/23 03:05:39;;;;;;;353.15;58.13;;;6.20;99.90;;;;;;5014443;28;20072;-63
2023/04/23 03:08:05;;;;;;;506.13;67.80;;;7.10;99.90;;;;;;5014139;28;20418;-61
2023/04/23 03:10:30;;;;;;;692.13;70.82;;;6.40;99.90;;;;;;5014332;28;20056;-62
2023/04/23 03:12:56;;;;;;;559.30;65.68;;;6.60;99.90;;;;;;5013882;28;20081;-62
2023/04/23 03:15:22;;;;;;;467.70;60.58;;;6.40;99.90;;;;;;5014128;28;20100;-62
2023/04/23 03:17:47;;;;;;;524.20;64.90;;;7.70;99.90;;;;;;5013930;28;20042;-62
2023/04/23 03:20:13;;;;;;;640.58;70.75;;;7.70;99.90;;;;;;5014196;28;20049;-62
2023/04/23 03:22:39;;;;;;;475.50;66.95;;;6.30;99.90;;;;;;5013802;28;20046;-62
2023/04/23 03:25:05;;;;;;;548.33;70.43;;;7.60;99.90;;;;;;5013999;28;20056;-62
2023/04/23 03:27:31;;;;;;;;;;;6.40;99.90;;;;;;5014550;28;20065;-62
2023/04/23 03:29:57;;;;;;;606.33;66.55;;;6.40;99.90;;;;;;5014028;28;19921;-62
2023/04/23 03:32:23;;;;;;;977.60;87.70;;;7.80;99.90;;;;;;5014072;28;20097;-61
2023/04/23 03:34:49;;;;;;;790.80;78.25;;;7.60;99.90;;;;;;5013550;28;20065;-61
2023/04/23 03:37:15;;;;;;;462.73;66.53;;;6.50;99.90;;;;;;5013657;28;20413;-62
2023/04/23 03:39:41;;;;;;;655.20;78.07;;;8.80;99.90;;;;;;5013510;28;20045;-64
2023/04/23 03:42:06;;;;;;;515.65;74.38;;;7.10;99.90;;;;;;5012957;28;20046;-63
2023/04/23 03:44:32;;;;;;;584.42;72.53;;;8.60;99.90;;;;;;5013643;28;20053;-62
2023/04/23 03:46:57;;;;;;;640.20;77.78;;;7.60;99.90;;;;;;5013880;28;20045;-62
2023/04/23 03:49:25;;;;;;;581.80;74.97;;;7.30;99.90;;;;;;5013571;28;20061;-62
2023/04/23 03:51:51;;;;;;;663.83;79.00;;;7.60;99.90;;;;;;5013286;28;20053;-64
2023/04/23 03:54:17;;;;;;;677.92;79.22;;;6.60;99.90;;;;;;5013452;28;20046;-62
2023/04/23 03:56:43;;;;;;;484.45;71.55;;;7.00;99.90;;;;;;5013508;28;20061;-62
2023/04/23 03:59:08;;;;;;;426.25;70.10;;;6.40;99.90;;;;;;5013427;28;20498;-61
2023/04/23 04:01:35;;;;;;;511.10;75.15;;;7.60;99.90;;;;;;5013397;28;20398;-62
2023/04/23 04:04:01;;;;;;;544.80;75.03;;;8.00;99.90;;;;;;5013002;28;20046;-62
2023/04/23 04:06:26;;;;;;;496.40;70.07;;;8.00;99.90;;;;;;5012947;28;20056;-63
2023/04/23 04:08:52;;;;;;;910.78;90.10;;;6.70;99.90;;;;;;5013290;28;20050;-62
2023/04/23 04:11:18;;;;;;;477.65;69.97;;;8.00;99.90;;;;;;5011851;28;20041;-63
2023/04/23 04:13:43;;;;;;;886.05;89.35;;;7.90;99.90;;;;;;5013106;28;20049;-62
2023/04/23 04:16:09;;;;;;;510.33;68.38;;;7.20;99.90;;;;;;5013052;28;20053;-62
2023/04/23 04:18:35;;;;;;;420.63;67.20;;;7.30;99.90;;;;;;5013135;28;20045;-62
2023/04/23 04:21:01;;;;;;;345.27;66.25;;;8.50;99.90;;;;;;5012828;28;20148;-62
2023/04/23 04:23:27;;;;;;;371.02;67.05;;;6.20;99.90;;;;;;5013261;28;20053;-63
2023/04/23 04:25:55;;;;;;;;;;;7.60;99.90;;;;;;5013229;28;20068;-62
2023/04/23 04:28:21;;;;;;;265.73;62.75;;;7.90;99.90;;;;;;5012943;28;19964;-62
2023/04/23 04:30:49;;;;;;;330.85;67.40;;;7.30;99.90;;;;;;5012875;28;20204;-63
2023/04/23 04:33:15;;;;;;;443.42;74.32;;;8.10;99.90;;;;;;5012836;28;20065;-63
2023/04/23 04:35:41;;;;;;;363.13;70.95;;;6.80;99.90;;;;;;5012103;28;20057;-62
2023/04/23 04:38:07;;;;;;;299.23;68.10;;;6.30;99.90;;;;;;5012739;28;20498;-62
2023/04/23 04:40:33;;;;;;;340.48;67.95;;;7.00;99.90;;;;;;5012710;28;20068;-62
2023/04/23 04:42:59;;;;;;;332.65;70.55;;;7.20;99.90;;;;;;5012709;28;20430;-62
2023/04/23 04:45:25;;;;;;;311.95;70.00;;;7.90;99.90;;;;;;5012554;28;20141;-64
2023/04/23 04:47:51;;;;;;;299.17;69.28;;;7.70;99.90;;;;;;5012561;28;20046;-62
2023/04/23 04:50:17;;;;;;;424.05;79.07;;;7.50;99.90;;;;;;5012428;28;20144;-63
2023/04/23 04:52:42;;;;;;;367.77;76.40;;;8.30;99.90;;;;;;5012049;28;20149;-63
2023/04/23 04:55:08;;;;;;;319.10;70.82;;;8.70;99.90;;;;;;5012777;28;20068;-62
2023/04/23 04:57:35;;;;;;;453.00;81.65;;;6.80;99.90;;;;;;5011162;28;20095;-62
2023/04/23 05:00:17;;;;;;;402.58;76.55;;;9.00;99.90;;;;;;5012447;28;20532;-63
2023/04/23 05:02:43;;;;;;;327.83;75.55;;;7.30;99.90;;;;;;5012112;28;20543;-62
2023/04/23 05:05:09;;;;;;;325.38;73.80;;;7.30;99.90;;;;;;5012376;28;20042;-63
2023/04/23 05:07:35;;;;;;;431.02;80.88;;;6.70;99.90;;;;;;5012392;28;20049;-62
2023/04/23 05:10:00;;;;;;;;;;;9.20;99.90;;;;;;5012755;28;20133;-62
2023/04/23 05:12:26;;;;;;;550.35;84.00;;;8.20;99.90;;;;;;5012144;28;20148;-65
2023/04/23 05:14:52;;;;;;;434.85;80.50;;;6.90;99.90;;;;;;5012196;28;20057;-62
2023/04/23 05:17:18;;;;;;;584.08;89.07;;;8.20;99.90;;;;;;5011958;28;20046;-63
2023/04/23 05:19:43;;;;;;;508.40;84.22;;;8.50;99.90;;;;;;5011985;28;20042;-61
2023/04/23 05:22:09;;;;;;;665.28;92.13;;;8.30;99.90;;;;;;5012243;28;20042;-63
2023/04/23 05:24:35;;;;;;;505.42;86.25;;;8.70;99.90;;;;;;5012226;28;20050;-62
2023/04/23 05:27:01;;;;;;;495.70;90.70;;;6.70;99.90;;;;;;5012444;28;20078;-62
2023/04/23 05:29:27;;;;;;;443.45;86.55;;;7.50;99.90;;;;;;5012209;28;20046;-62
2023/04/23 05:31:53;;;;;;;346.75;80.68;;;7.20;99.90;;;;;;5011756;28;20068;-65
2023/04/23 05:34:18;;;;;;;388.95;81.43;;;6.30;99.90;;;;;;5012120;28;20048;-63
2023/04/23 05:36:44;;;;;;;377.10;81.13;;;8.30;99.90;;;;;;5011623;28;20065;-63
2023/04/23 05:39:10;;;;;;;372.33;85.47;;;7.30;99.90;;;;;;5012064;28;20049;-62
2023/04/23 05:41:36;;;;;;;438.05;95.65;;;8.20;99.90;;;;;;5012031;28;20042;-63
2023/04/23 05:44:01;;;;;;;428.40;85.07;;;8.30;99.90;;;;;;5011934;28;20585;-62
2023/04/23 05:46:27;;;;;;;408.20;83.85;;;8.10;99.90;;;;;;5011657;28;20054;-62
2023/04/23 05:48:53;;;;;;;379.48;82.82;;;7.20;99.90;;;;;;5011895;28;20140;-64
2023/04/23 05:51:18;;;;;;;376.65;82.50;;;9.90;99.90;;;;;;5027109;28;20096;-63
2023/04/23 05:53:44;;;;;;;363.27;79.60;;;7.60;99.90;;;;;;5011600;28;20567;-63
2023/04/23 05:56:10;;;;;;;355.92;81.35;;;7.50;99.90;;;;;;5011832;28;20038;-63
2023/04/23 05:58:37;;;;;;;356.67;82.50;;;9.50;99.90;;;;;;5011732;28;20133;-64
2023/04/23 06:01:03;;;;;;;313.58;79.72;;;8.80;99.90;;;;;;5011572;28;20069;-63
2023/04/23 06:03:29;;;;;;;306.27;84.10;;;7.70;99.90;;;;;;5012010;28;20050;-65
2023/04/23 06:05:55;;;;;;;311.55;80.25;;;8.30;99.90;;;;;;5015589;28;20179;-63
2023/04/23 06:08:20;;;;;;;301.17;79.93;;;9.30;99.90;;;;;;5015853;28;20132;-62
2023/04/23 06:10:46;;;;;;;268.77;79.13;;;8.80;99.90;;;;;;5015428;28;20046;-62
2023/04/23 06:13:12;;;;;;;263.67;75.95;;;7.60;99.90;;;;;;5015647;28;20100;-63
2023/04/23 06:15:37;;;;;;;265.70;75.53;;;7.70;99.90;;;;;;5015061;28;20042;-65
2023/04/23 06:18:03;;;;;;;248.27;76.28;;;9.10;99.90;;;;;;5015317;28;20483;-63
2023/04/23 06:20:29;;;;;;;238.02;75.28;;;9.10;99.90;;;;;;5047151;28;20050;-62
2023/04/23 06:22:55;;;;;;;218.93;70.03;;;8.00;99.90;;;;;;5015224;28;20041;-65
2023/04/23 06:25:21;;;;;;;221.05;71.15;;;9.20;99.90;;;;;;5015219;28;20049;-63
2023/04/23 06:27:46;;;;;;;195.77;72.38;;;8.10;99.90;;;;;;5015239;28;20053;-62
2023/04/23 06:30:12;;;;;;;206.68;68.53;;;8.40;99.90;;;;;;5014874;28;20046;-62
2023/04/23 06:32:38;;;;;;;203.43;69.85;;;9.50;99.90;;;;;;5015007;28;20049;-63
2023/04/23 06:35:05;;;;;;;191.25;66.28;;;8.10;99.90;;;;;;5014816;28;20111;-62
2023/04/23 06:37:31;;;;;;;182.80;63.45;;;8.30;99.90;;;;;;5015037;28;20050;-62
2023/04/23 06:39:58;;;;;;;171.27;64.60;;;8.50;99.90;;;;;;5014992;28;20088;-63
2023/04/23 06:42:23;;;;;;;166.85;64.22;;;9.70;99.90;;;;;;5014685;28;20563;-62
2023/04/23 06:44:50;;;;;;;176.57;66.70;;;8.60;99.90;;;;;;5014573;28;20081;-62
2023/04/23 06:47:16;;;;;;;160.88;63.83;;;10.20;99.90;;;;;;5013671;28;20098;-63
2023/04/23 06:49:42;;;;;;;147.18;60.33;;;9.20;99.90;;;;;;5015143;28;20474;-64
2023/04/23 06:52:07;;;;;;;135.38;58.95;;;8.80;99.90;;;;;;5014650;28;20486;-65
2023/04/23 06:54:33;;;;;;;122.78;56.72;;;9.60;99.90;;;;;;5014786;28;20042;-64
2023/04/23 06:56:59;;;;;;;137.45;60.35;;;10.00;99.90;;;;;;5014683;28;20056;-63
2023/04/23 06:59:24;;;;;;;142.68;60.05;;;8.70;99.90;;;;;;5014415;28;20088;-62
2023/04/23 07:01:50;;;;;;;143.57;60.97;;;10.00;99.90;;;;;;5014602;28;20103;-63
2023/04/23 07:04:16;;;;;;;133.02;59.85;;;10.30;99.90;;;;;;5014567;28;20046;-63
2023/04/23 07:06:41;;;;;;;133.07;62.22;;;10.70;99.90;;;;;;5014845;28;20486;-63
2023/04/23 07:09:07;;;;;;;128.40;59.70;;;10.60;99.90;;;;;;5014461;28;20050;-62
2023/04/23 07:11:35;;;;;;;119.25;55.83;;;10.30;99.90;;;;;;5014374;28;20529;-65
2023/04/23 07:14:01;;;;;;;118.55;55.17;;;10.30;99.90;;;;;;5014139;28;20053;-62
2023/04/23 07:16:30;;;;;;;98.47;54.63;;;10.90;99.90;;;;;;5014188;28;20037;-62
2023/04/23 07:18:56;;;;;;;112.00;54.22;;;10.70;99.90;;;;;;5014429;28;20045;-64
2023/04/23 07:21:22;;;;;;;108.30;54.92;;;11.10;99.90;;;;;;5014608;28;20046;-63
2023/04/23 07:23:47;;;;;;;106.75;53.05;;;10.60;99.90;;;;;;5014272;28;20183;-63
2023/04/23 07:26:13;;;;;;;104.20;53.85;;;11.00;99.90;;;;;;5014183;28;20607;-63
2023/04/23 07:28:39;;;;;;;102.55;52.58;;;11.30;99.90;;;;;;5013880;28;20144;-65
2023/04/23 07:31:06;;;;;;;103.15;51.33;;;10.80;99.90;;;;;;5013958;28;20060;-63
2023/04/23 07:33:32;;;;;;;100.35;53.25;;;11.40;99.90;;;;;;5013979;28;20046;-63
2023/04/23 07:35:58;;;;;;;96.63;51.95;;;11.30;99.90;;;;;;5013867;28;20065;-64
2023/04/23 07:38:23;;;;;;;95.40;52.15;;;11.00;99.90;;;;;;5012943;28;20057;-63
2023/04/23 07:40:49;;;;;;;90.65;51.90;;;10.90;99.90;;;;;;5013879;28;20054;-63
2023/04/23 07:43:15;;;;;;;95.28;51.58;;;11.30;99.90;;;;;;5012313;28;20053;-63
2023/04/23 07:45:41;;;;;;;;;;;11.30;99.90;;;;;;5014186;28;20128;-63
2023/04/23 07:48:06;;;;;;;91.60;49.97;;;11.00;99.90;;;;;;5013714;28;20442;-63
2023/04/23 07:50:32;;;;;;;93.53;52.28;;;11.40;99.90;;;;;;5013687;28;20041;-62
2023/04/23 07:52:58;;;;;;;91.38;50.53;;;12.30;99.90;;;;;;5013863;28;20412;-62
2023/04/23 07:55:23;;;;;;;85.07;50.28;;;11.50;99.90;;;;;;5013548;28;20446;-62
2023/04/23 07:57:49;;;;;;;85.55;49.70;;;12.00;99.90;;;;;;5013297;28;20057;-63
2023/04/23 08:00:15;;;;;;;88.70;48.70;;;11.80;99.90;;;;;;5013502;28;20049;-63
2023/04/23 08:02:41;;;;;;;77.00;46.97;;;12.80;99.90;;;;;;5013461;28;20045;-64
2023/04/23 08:05:07;;;;;;;78.80;46.75;;;11.90;99.90;;;;;;5013485;28;20120;-63
2023/04/23 08:07:33;;;;;;;;;;;12.40;99.90;;;;;;5014075;28;20049;-62
2023/04/23 08:10:02;;;;;;;74.18;44.25;;;12.50;99.90;;;;;;5013432;28;20281;-63
2023/04/23 08:12:29;;;;;;;69.18;43.40;;;12.50;99.90;;;;;;5013014;28;20061;-63
2023/04/23 08:14:55;;;;;;;67.85;42.95;;;13.00;99.90;;;;;;5013255;28;20049;-63
2023/04/23 08:17:21;;;;;;;70.43;42.78;;;13.60;99.90;;;;;;5013352;28;20049;-64
2023/04/23 08:19:46;;;;;;;69.47;41.53;;;13.40;99.90;;;;;;5013198;28;20132;-63
2023/04/23 08:22:12;;;;;;;62.63;39.47;;;13.60;99.90;;;;;;5013113;28;20045;-66
2023/04/23 08:24:38;;;;;;;55.28;37.05;;;14.10;99.90;;;;;;5013191;28;20140;-62
2023/04/23 08:27:03;;;;;;;55.40;36.17;;;14.10;99.90;;;;;;5012253;28;20509;-63
2023/04/23 08:29:29;;;;;;;53.85;36.35;;;13.90;99.90;;;;;;5013036;28;20140;-63
2023/04/23 08:31:55;;;;;;;52.78;34.53;;;14.20;99.90;;;;;;5012923;28;20060;-63
2023/04/23 08:34:20;;;;;;;51.72;33.35;;;13.80;99.90;;;;;;5013024;28;20049;-63
2023/04/23 08:36:48;;;;;;;54.70;35.05;;;14.30;99.90;;;;;;5013042;28;20073;-63
2023/04/23 08:39:13;;;;;;;52.35;33.80;;;14.40;99.90;;;;;;5012872;28;20053;-63
2023/04/23 08:41:41;;;;;;;50.75;32.08;;;13.90;99.90;;;;;;5012545;28;20573;-63
2023/04/23 08:44:20;;;;;;;44.28;30.42;;;14.10;99.90;;;;;;5012790;28;20050;-63
2023/04/23 08:46:46;;;;;;;53.25;33.15;;;14.30;99.90;;;;;;5012746;28;20038;-63
2023/04/23 08:49:17;;;;;;;46.58;29.35;;;14.20;99.90;;;;;;5012633;28;20049;-63
2023/04/23 08:51:51;;;;;;;47.28;31.25;;;14.20;99.90;;;;;;5012703;28;20427;-63
2023/04/23 08:54:39;;;;;;;39.72;25.92;;;14.00;99.90;;;;;;5012718;28;20046;-63
2023/04/23 08:57:07;;;;;;;45.88;27.75;;;14.30;99.90;;;;;;5012618;28;20060;-64
2023/04/23 08:59:34;;;;;;;46.28;29.42;;;14.40;99.90;;;;;;5012496;28;20556;-62
2023/04/23 09:02:06;;;;;;;46.15;29.60;;;14.60;99.90;;;;;;5012460;28;20046;-63
2023/04/23 09:04:33;;;;;;;39.78;27.95;;;14.70;99.90;;;;;;5012592;28;20101;-63
2023/04/23 09:06:59;;;;;;;39.70;26.58;;;14.60;99.90;;;;;;5012477;28;20049;-63
2023/04/23 09:09:28;;;;;;;38.10;25.83;;;14.70;99.90;;;;;;5012237;28;20132;-62
2023/04/23 09:11:57;;;;;;;40.92;27.67;;;15.00;99.90;;;;;;5012435;28;20056;-63
2023/04/23 09:14:24;;;;;;;45.00;28.17;;;14.90;99.90;;;;;;5012627;28;20050;-62
2023/04/23 09:16:50;;;;;;;38.42;23.67;;;14.40;99.90;;;;;;5011421;28;20585;-65
2023/04/23 09:19:17;;;;;;;36.90;24.23;;;14.70;99.90;;;;;;5012371;28;20050;-63
2023/04/23 09:21:45;;;;;;;33.72;23.95;;;14.80;99.90;;;;;;5012380;28;20077;-63
2023/04/23 09:24:11;;;;;;;33.58;21.52;;;15.10;99.90;;;;;;5011973;28;20148;-64
2023/04/23 09:26:43;;;;;;;;;;;15.30;99.90;;;;;;5012718;28;20046;-63
2023/04/23 09:29:16;;;;;;;35.55;24.58;;;15.30;99.90;;;;;;5012251;28;19922;-62
2023/04/23 09:31:42;;;;;;;35.53;23.48;;;15.40;99.90;;;;;;5012199;28;20065;-62
2023/04/23 09:34:08;;;;;;;32.70;21.42;;;15.50;99.90;;;;;;5012216;28;20107;-62
2023/04/23 09:36:36;;;;;;;;;;;15.70;99.90;;;;;;5012423;28;20068;-62
2023/04/23 09:39:01;;;;;;;27.40;17.60;;;15.30;99.90;;;;;;5013026;28;20021;-63
2023/04/23 09:41:29;;;;;;;33.00;21.77;;;15.30;99.90;;;;;;5016109;28;20128;-63
2023/04/23 09:43:57;;;;;;;34.95;21.95;;;15.20;99.90;;;;;;5016126;28;20046;-62
2023/04/23 09:46:41;;;;;;;33.67;22.67;;;14.70;99.90;;;;;;5016169;28;20042;-63
2023/04/23 09:49:09;;;;;;;29.23;20.65;;;14.90;99.90;;;;;;5016077;28;20050;-64
2023/04/23 09:51:41;;;;;;;31.10;20.80;;;14.90;99.90;;;;;;5015919;28;20044;-62
2023/04/23 09:54:21;;;;;;;29.42;20.05;;;15.40;99.90;;;;;;5015765;28;20052;-63
2023/04/23 09:56:52;;;;;;;27.42;19.65;;;15.80;99.90;;;;;;5015968;28;20454;-64
2023/04/23 09:59:27;;;;;;;25.70;17.38;;;16.00;99.90;;;;;;5015799;28;20049;-63
2023/04/23 10:01:54;;;;;;;25.17;17.38;;;15.80;99.90;;;;;;5015759;28;20042;-63
2023/04/23 10:04:22;;;;;;;24.38;17.75;;;16.10;99.90;;;;;;5015788;28;20112;-62
2023/04/23 10:06:54;;;;;;;26.45;18.10;;;16.10;99.90;;;;;;5015442;28;20585;-61
2023/04/23 10:09:23;;;;;;;24.45;16.98;;;16.00;99.90;;;;;;5015768;28;20536;-62
2023/04/23 10:11:51;;;;;;;27.23;18.10;;;16.10;99.90;;;;;;5015568;28;20088;-64
2023/04/23 10:14:19;;;;;;;24.80;17.58;;;15.70;99.90;;;;;;5015656;28;20057;-63
2023/04/23 10:16:46;;;;;;;22.73;15.60;;;16.10;99.90;;;;;;5015539;28;20041;-62
2023/04/23 10:19:14;;;;;;;22.50;14.82;;;16.40;99.90;;;;;;5015409;28;20049;-62
2023/04/23 10:21:41;;;;;;;24.63;14.60;;;16.50;99.90;;;;;;5015139;28;20049;-63
2023/04/23 10:24:11;;;;;;;18.58;11.48;;;16.80;99.90;;;;;;5015675;28;20397;-62
2023/04/23 10:26:40;;;;;;;21.48;12.27;;;16.70;99.90;;;;;;5015365;28;20084;-63
2023/04/23 10:29:12;;;;;;;18.95;11.25;;;16.80;99.90;;;;;;5015267;28;20054;-62
2023/04/23 10:31:39;;;;;;;21.17;11.45;;;16.90;99.90;;;;;;5015197;28;20160;-63
2023/04/23 10:34:06;;;;;;;15.27;9.88;;;16.70;99.90;;;;;;5015253;28;20064;-63
2023/04/23 10:36:36;;;;;;;20.77;12.02;;;16.80;99.90;;;;;;5014475;28;20062;-62
2023/04/23 10:39:06;;;;;;;17.15;10.85;;;17.30;99.90;;;;;;5015093;28;20089;-63
2023/04/23 10:41:42;;;;;;;15.43;8.27;;;17.40;99.90;;;;;;5014659;28;20494;-63
2023/04/23 10:44:12;;;;;;;17.43;8.67;;;17.70;99.90;;;;;;5015104;28;20057;-62
2023/04/23 10:46:38;;;;;;;15.77;8.52;;;18.00;99.90;;;;;;5014737;28;20765;-62
2023/04/23 10:49:15;;;;;;;13.63;7.35;;;17.40;99.90;;;;;;5014612;28;20056;-61
2023/04/23 10:51:44;;;;;;;13.52;7.35;;;17.50;99.90;;;;;;5014209;28;20049;-64
2023/04/23 10:54:13;;;;;;;16.13;7.68;;;17.60;99.90;;;;;;5013650;28;20050;-62
2023/04/23 10:56:40;;;;;;;15.00;7.00;;;18.30;99.90;;;;;;5015081;28;20136;-62
2023/04/23 10:59:20;;;;;;;15.55;8.90;;;17.90;99.90;;;;;;5014713;28;20058;-63
2023/04/23 11:01:47;;;;;;;16.42;6.63;;;18.30;99.90;;;;;;5015048;28;20100;-62
2023/04/23 11:04:27;;;;;;;13.95;6.85;;;18.40;99.90;;;;;;5014674;28;20057;-62
2023/04/23 11:07:07;;;;;;;9.05;6.15;;;18.60;99.90;;;;;;5014645;28;20188;-61
2023/04/23 11:09:49;;;;;;;14.23;5.35;;;18.60;99.90;;;;;;5014632;28;20050;-61
2023/04/23 11:12:23;;;;;;;9.30;4.68;;;18.40;99.90;;;;;;5014474;28;20088;-62
2023/04/23 11:14:51;;;;;;;6.70;4.15;;;18.20;99.90;;;;;;5014418;28;20042;-62
2023/04/23 11:17:20;;;;;;;11.48;4.57;;;18.20;99.90;;;;;;5014365;28;20050;-65
2023/04/23 11:20:12;;;;;;;9.05;4.30;;;18.50;99.90;;;;;;5014080;28;20054;-62
2023/04/23 11:22:48;;;;;;;9.07;4.00;;;18.60;99.90;;;;;;5014232;28;20069;-62
2023/04/23 11:25:22;;;;;;;11.25;3.78;;;18.60;99.90;;;;;;5014278;28;20430;-62
2023/04/23 11:27:49;;;;;;;7.40;3.42;;;18.60;99.90;;;;;;5014291;28;20046;-62
2023/04/23 11:30:21;;;;;;;9.52;3.92;;;18.50;99.90;;;;;;5014174;28;20120;-63
2023/04/23 11:32:49;;;;;;;7.03;3.38;;;18.00;99.90;;;;;;5014040;28;20049;-66
2023/04/23 11:35:16;;;;;;;7.38;3.63;;;18.30;99.90;;;;;;5013709;28;20542;-62
2023/04/23 11:37:44;;;;;;;4.88;3.53;;;17.90;99.90;;;;;;5013966;28;20049;-62
2023/04/23 11:40:17;;;;;;;10.80;4.00;;;18.10;99.90;;;;;;5014111;28;20137;-62
2023/04/23 11:42:49;;;;;;;9.98;4.15;;;18.00;99.90;;;;;;5013948;28;20082;-62
2023/04/23 11:45:19;;;;;;;10.38;4.30;;;18.30;99.90;;;;;;5013971;28;20091;-62
2023/04/23 11:47:47;;;;;;;9.77;5.40;;;19.20;99.90;;;;;;5013772;28;20050;-62
2023/04/23 11:50:21;;;;;;;9.52;4.70;;;18.40;99.90;;;;;;5013520;28;20068;-62
2023/04/23 11:52:47;;;;;;;9.82;5.07;;;18.80;99.90;;;;;;5013750;28;20046;-62
2023/04/23 11:55:13;;;;;;;8.02;4.60;;;18.50;99.90;;;;;;5013615;28;20111;-61
2023/04/23 11:57:43;;;;;;;8.98;4.75;;;18.90;99.90;;;;;;5013609;28;20058;-62
2023/04/23 12:00:17;;;;;;;9.23;4.32;;;19.40;99.90;;;;;;5013277;28;20046;-62
2023/04/23 12:03:03;;;;;;;12.68;5.15;;;19.10;99.90;;;;;;5012664;28;20121;-61
2023/04/23 12:05:36;;;;;;;9.35;4.10;;;18.70;99.90;;;;;;5013176;28;20060;-61
2023/04/23 12:08:20;;;;;;;8.55;3.92;;;19.00;99.90;;;;;;5013464;28;20049;-62
2023/04/23 12:10:53;;;;;;;6.75;3.35;;;18.70;99.90;;;;;;5013471;28;20120;-61
2023/04/23 12:13:22;;;;;;;8.07;3.70;;;18.80;99.90;;;;;;5013243;28;20088;-61
2023/04/23 12:15:57;;;;;;;8.80;3.58;;;18.50;99.90;;;;;;5013230;28;20057;-61
2023/04/23 12:18:29;;;;;;;9.35;3.40;;;18.30;99.90;;;;;;5011755;28;20371;-62
2023/04/23 12:21:03;;;;;;;5.57;2.60;;;18.20;99.90;;;;;;5013273;28;20050;-62
2023/04/23 12:23:29;;;;;;;8.82;3.35;;;18.80;99.90;;;;;;5013180;28;20046;-61
2023/04/23 12:25:55;;;;;;;5.53;2.72;;;19.30;99.90;;;;;;5013124;28;20505;-62
2023/04/23 12:28:24;;;;;;;7.55;2.28;;;19.20;99.90;;;;;;5013160;28;20088;-62
2023/04/23 12:30:50;;;;;;;10.30;2.50;;;19.10;99.90;;;;;;5012975;28;20054;-61
2023/04/23 12:33:17;;;;;;;6.57;2.40;;;19.40;99.90;;;;;;5012498;28;20483;-63